Overview Statistics Trail Chart Weather Telemetry Raw packets
 

This is the latest recevied weather packets stored in our database for station/object XE2B-20. If no packets are shown the sender has not sent any weather packets the latest 10 day(s).

<< 11 12 13 14 15 16 17 >>
Time Temp. Humidity Pressure Rain* Wind** Luminosity Snow
1788203250 28.89° C 60% 810 hPa - - - -
1788201750 26.11° C 64% 810.3 hPa - - - -
1788200253 23.89° C 66% 810.4 hPa - - - -
1788198755 22.78° C 68% 810.4 hPa - - - -
1788197266 26.11° C 61% 810.5 hPa - - - -
1788195765 23.33° C 63% 810.6 hPa - - - -
1788194258 21.11° C 64% 810.7 hPa - - - -
1788192778 17.22° C 70% 810.8 hPa - - - -
1788191259 15.56° C 71% 810.7 hPa - - - -
1788189767 15° C 72% 810.8 hPa - - - -
1788188262 13.89° C 72% 810.8 hPa - - - -
1788186763 13.33° C 72% 810.9 hPa - - - -
1788185265 12.78° C 72% 810.8 hPa - - - -
1788182268 13.33° C 71% 810.5 hPa - - - -
1788180769 13.33° C 70% 810.4 hPa - - - -
1788179277 13.33° C 70% 810.2 hPa - - - -
1788177770 13.33° C 69% 809.9 hPa - - - -
1788176271 13.33° C 68% 809.6 hPa - - - -
1788174772 13.33° C 68% 809.6 hPa - - - -
1788173278 13.33° C 67% 809.5 hPa - - - -
1788171773 12.78° C 66% 809.7 hPa - - - -
1788170273 12.78° C 66% 809.5 hPa - - - -
1788168774 12.78° C 65% 809.6 hPa - - - -
1788167275 12.78° C 64% 809.6 hPa - - - -
1788165776 12.78° C 62% 809.4 hPa - - - -

* Rain since midnight (hover to see other rain measurements)
** Current wind speed in m/s (hover to see current wind gust speed)